createdAt,value
2022-08-03T00:01:28.472Z,2.90
2022-08-03T00:03:55.630Z,2.90
2022-08-03T00:06:22.378Z,2.40
2022-08-03T00:08:49.104Z,3.03
2022-08-03T00:11:15.797Z,2.53
2022-08-03T00:13:42.640Z,3.42
2022-08-03T00:16:10.678Z,2.80
2022-08-03T00:18:38.011Z,2.70
2022-08-03T00:21:05.608Z,2.90
2022-08-03T00:23:51.369Z,3.00
2022-08-03T00:26:18.774Z,2.70
2022-08-03T00:28:45.445Z,2.42
2022-08-03T00:31:13.497Z,2.70
2022-08-03T00:33:59.971Z,3.00
2022-08-03T00:36:28.500Z,2.85
2022-08-03T00:38:56.373Z,3.92
2022-08-03T00:41:23.373Z,2.60
2022-08-03T00:43:50.145Z,2.63
2022-08-03T00:46:21.408Z,2.53
2022-08-03T00:48:53.182Z,2.58
2022-08-03T00:51:23.922Z,3.28
2022-08-03T00:53:51.000Z,3.17
2022-08-03T00:56:18.223Z,3.53
2022-08-03T00:58:46.799Z,2.80
2022-08-03T01:01:14.043Z,2.92
2022-08-03T01:03:41.134Z,2.55
2022-08-03T01:06:17.985Z,2.95
2022-08-03T01:08:54.590Z,3.10
2022-08-03T01:12:00.534Z,3.03
2022-08-03T01:15:12.527Z,3.08
2022-08-03T01:17:59.370Z,3.50
2022-08-03T01:20:33.707Z,3.30
2022-08-03T01:23:40.274Z,3.70
2022-08-03T01:26:32.119Z,3.38
2022-08-03T01:29:37.169Z,3.40
2022-08-03T01:33:00.593Z,4.35
2022-08-03T01:37:51.698Z,4.45
2022-08-03T01:40:22.071Z,3.45
2022-08-03T01:42:50.668Z,3.63
2022-08-03T01:45:19.053Z,3.47
2022-08-03T01:47:48.354Z,4.20
2022-08-03T01:50:16.798Z,4.05
2022-08-03T01:52:47.645Z,3.90
2022-08-03T01:55:18.747Z,4.15
2022-08-03T01:58:05.937Z,4.28
2022-08-03T02:00:36.750Z,3.55
2022-08-03T02:03:06.953Z,3.17
2022-08-03T02:05:35.290Z,3.30
2022-08-03T02:08:05.065Z,4.28
2022-08-03T02:10:35.159Z,4.95
2022-08-03T02:13:07.163Z,4.10
2022-08-03T02:15:35.750Z,4.20
2022-08-03T02:18:05.071Z,4.22
2022-08-03T02:20:36.330Z,4.03
2022-08-03T02:23:03.540Z,4.25
2022-08-03T02:25:32.167Z,4.38
2022-08-03T02:28:08.263Z,5.63
2022-08-03T02:30:39.150Z,4.38
2022-08-03T02:33:16.587Z,5.15
2022-08-03T02:35:44.973Z,4.80
2022-08-03T02:38:14.003Z,4.80
2022-08-03T02:40:43.331Z,4.60
2022-08-03T02:43:17.051Z,4.70
2022-08-03T02:45:47.985Z,4.88
2022-08-03T02:48:23.640Z,4.30
2022-08-03T02:53:22.254Z,4.28
2022-08-03T02:55:50.014Z,4.75
2022-08-03T02:58:21.317Z,5.13
2022-08-03T03:00:51.704Z,4.85
2022-08-03T03:03:20.862Z,4.85
2022-08-03T03:05:52.697Z,5.15
2022-08-03T03:10:57.021Z,5.28
2022-08-03T03:13:24.577Z,4.82
2022-08-03T03:15:53.615Z,5.95
2022-08-03T03:18:22.751Z,5.57
2022-08-03T03:20:52.952Z,5.65
2022-08-03T03:23:23.288Z,5.72
2022-08-03T03:25:51.381Z,5.50
2022-08-03T03:28:18.451Z,5.43
2022-08-03T03:30:45.489Z,4.65
2022-08-03T03:33:20.930Z,5.53
2022-08-03T03:35:48.390Z,5.22
2022-08-03T03:38:15.024Z,6.15
2022-08-03T03:40:41.867Z,5.15
2022-08-03T03:43:11.431Z,4.90
2022-08-03T03:45:41.113Z,5.90
2022-08-03T03:48:08.751Z,5.38
2022-08-03T03:50:37.454Z,5.05
2022-08-03T03:53:04.823Z,5.88
2022-08-03T03:55:31.547Z,6.57
2022-08-03T03:57:58.165Z,6.47
2022-08-03T04:00:25.165Z,6.10
2022-08-03T04:02:51.901Z,4.90
2022-08-03T04:05:37.237Z,5.22
2022-08-03T04:08:29.065Z,5.35
2022-08-03T04:11:19.139Z,6.18
2022-08-03T04:14:02.077Z,6.03
2022-08-03T04:16:33.840Z,5.50
2022-08-03T04:19:11.937Z,5.68
2022-08-03T04:21:43.397Z,5.70
2022-08-03T04:24:12.701Z,5.35
2022-08-03T04:26:42.506Z,5.68
2022-08-03T04:29:11.791Z,5.90
2022-08-03T04:31:40.130Z,5.80
2022-08-03T04:34:07.741Z,5.80
2022-08-03T04:36:44.215Z,6.50
2022-08-03T04:39:23.291Z,6.85
2022-08-03T04:42:07.244Z,5.40
2022-08-03T04:44:42.488Z,5.68
2022-08-03T04:47:09.166Z,6.22
2022-08-03T04:49:40.169Z,5.50
2022-08-03T04:52:10.833Z,6.65
2022-08-03T04:54:50.271Z,6.07
2022-08-03T04:57:23.287Z,6.13
2022-08-03T05:00:02.031Z,5.90
2022-08-03T05:02:31.224Z,5.07
2022-08-03T05:04:58.661Z,5.55
2022-08-03T05:07:25.590Z,5.63
2022-08-03T05:10:01.599Z,5.80
2022-08-03T05:12:32.937Z,5.35
2022-08-03T05:15:00.786Z,5.25
2022-08-03T05:17:28.573Z,5.32
2022-08-03T05:19:56.033Z,5.07
2022-08-03T05:22:23.667Z,4.55
2022-08-03T05:25:00.020Z,4.88
2022-08-03T05:27:26.685Z,4.70
2022-08-03T05:29:53.451Z,4.82
2022-08-03T05:32:20.477Z,4.68
2022-08-03T05:34:47.303Z,5.13
2022-08-03T05:37:14.030Z,4.75
2022-08-03T05:39:40.805Z,5.05
2022-08-03T05:42:07.887Z,4.85
2022-08-03T05:44:34.577Z,4.13
2022-08-03T05:47:01.266Z,4.40
2022-08-03T05:49:28.109Z,4.65
2022-08-03T05:52:00.418Z,5.20
2022-08-03T05:54:56.077Z,4.40
2022-08-03T05:57:24.009Z,4.75
2022-08-03T05:59:55.675Z,5.10
2022-08-03T06:02:28.985Z,4.60
2022-08-03T06:04:55.713Z,4.53
2022-08-03T06:07:22.458Z,4.63
2022-08-03T06:10:35.816Z,4.78
2022-08-03T06:12:36.295Z,4.47
2022-08-03T06:15:05.161Z,4.25
2022-08-03T06:17:37.400Z,4.53
2022-08-03T06:20:05.742Z,4.72
2022-08-03T06:22:32.485Z,4.43
2022-08-03T06:25:03.416Z,4.22
2022-08-03T06:27:37.067Z,4.57
2022-08-03T06:30:06.418Z,4.53
2022-08-03T06:32:33.702Z,4.07
2022-08-03T06:35:01.044Z,5.07
2022-08-03T06:37:27.694Z,4.60
2022-08-03T06:39:54.565Z,4.45
2022-08-03T06:42:23.646Z,4.40
2022-08-03T06:44:52.108Z,4.47
2022-08-03T06:47:18.764Z,4.53
2022-08-03T06:50:12.570Z,4.20
2022-08-03T06:52:37.526Z,3.60
2022-08-03T06:55:06.511Z,4.05
2022-08-03T06:57:33.213Z,3.65
2022-08-03T07:00:08.953Z,3.97
2022-08-03T07:02:39.945Z,3.88
2022-08-03T07:05:08.374Z,3.55
2022-08-03T07:07:35.698Z,3.42
2022-08-03T07:10:02.750Z,3.63
2022-08-03T07:12:30.912Z,3.17
2022-08-03T07:15:01.719Z,2.20
2022-08-03T07:17:32.733Z,2.80
2022-08-03T07:20:01.560Z,2.28
2022-08-03T07:22:28.545Z,2.78
2022-08-03T07:24:55.536Z,2.90
2022-08-03T07:27:22.562Z,2.28
2022-08-03T07:29:54.533Z,2.88
2022-08-03T07:32:21.265Z,2.47
2022-08-03T07:34:48.093Z,2.42
2022-08-03T07:37:14.787Z,2.65
2022-08-03T07:39:41.502Z,2.60
2022-08-03T07:42:08.423Z,2.22
2022-08-03T07:44:35.140Z,1.80
2022-08-03T07:47:03.309Z,2.03
2022-08-03T07:49:30.767Z,2.08
2022-08-03T07:52:16.827Z,1.70
2022-08-03T07:54:43.692Z,1.65
2022-08-03T07:57:10.400Z,2.00
2022-08-03T07:59:56.582Z,2.03
2022-08-03T08:02:26.594Z,2.40
2022-08-03T08:04:53.256Z,1.63
2022-08-03T08:07:20.726Z,1.83
2022-08-03T08:09:47.521Z,2.20
2022-08-03T08:12:15.547Z,2.30
2022-08-03T08:14:45.619Z,1.88
2022-08-03T08:17:13.325Z,1.75
2022-08-03T08:19:43.815Z,2.03
2022-08-03T08:22:18.525Z,1.67
2022-08-03T08:24:56.449Z,1.63
2022-08-03T08:27:23.723Z,2.10
2022-08-03T08:29:54.598Z,1.52
2022-08-03T08:32:24.322Z,1.80
2022-08-03T08:34:51.002Z,1.70
2022-08-03T08:37:21.477Z,1.92
2022-08-03T08:39:48.187Z,1.50
2022-08-03T08:42:15.981Z,1.65
2022-08-03T08:44:42.818Z,1.80
2022-08-03T08:47:11.348Z,2.00
2022-08-03T08:49:49.363Z,1.58
2022-08-03T08:52:31.818Z,1.95
2022-08-03T08:55:00.907Z,1.40
2022-08-03T08:57:44.701Z,2.17
2022-08-03T09:00:15.514Z,1.63
2022-08-03T09:02:44.061Z,1.73
2022-08-03T09:05:19.019Z,1.55
2022-08-03T09:07:47.407Z,1.80
2022-08-03T09:10:21.887Z,1.23
2022-08-03T09:12:51.498Z,1.05
2022-08-03T09:15:31.344Z,1.67
2022-08-03T09:18:04.151Z,1.23
2022-08-03T09:20:36.669Z,1.38
2022-08-03T09:23:44.629Z,1.70
2022-08-03T09:26:00.031Z,1.15
2022-08-03T09:29:01.262Z,1.30
2022-08-03T09:31:47.435Z,1.48
2022-08-03T09:34:18.431Z,1.35
2022-08-03T09:36:50.931Z,1.10
2022-08-03T09:39:41.749Z,1.15
2022-08-03T09:42:14.686Z,0.68
2022-08-03T09:44:52.209Z,0.80
2022-08-03T09:47:33.023Z,1.10
2022-08-03T09:50:08.630Z,1.20
2022-08-03T09:52:50.093Z,1.35
2022-08-03T09:56:34.915Z,1.83
2022-08-03T09:58:10.353Z,0.80
2022-08-03T10:01:05.216Z,0.80
2022-08-03T10:03:36.488Z,1.10
2022-08-03T10:06:23.151Z,1.25
2022-08-03T10:09:12.684Z,1.05
2022-08-03T10:11:42.274Z,0.95
2022-08-03T10:14:18.972Z,1.05
2022-08-03T10:16:47.523Z,0.98
2022-08-03T10:19:15.560Z,1.23
2022-08-03T10:21:49.960Z,1.13
2022-08-03T10:24:24.331Z,1.15
2022-08-03T10:26:51.679Z,1.00
2022-08-03T10:29:25.089Z,1.30
2022-08-03T10:31:57.974Z,1.13
2022-08-03T10:34:35.166Z,0.90
2022-08-03T10:37:08.338Z,0.57
2022-08-03T10:39:35.958Z,0.95
2022-08-03T10:42:04.172Z,0.90
2022-08-03T10:44:40.007Z,0.80
2022-08-03T10:47:10.441Z,1.10
2022-08-03T10:49:38.132Z,1.48
2022-08-03T10:52:13.831Z,0.85
2022-08-03T10:55:11.483Z,1.00
2022-08-03T10:57:58.902Z,0.70
2022-08-03T11:00:30.432Z,1.10
2022-08-03T11:03:15.229Z,1.05
2022-08-03T11:05:49.272Z,0.65
2022-08-03T11:08:34.889Z,0.80
2022-08-03T11:11:18.118Z,0.95
2022-08-03T11:13:59.035Z,0.77
2022-08-03T11:16:27.686Z,0.98
2022-08-03T11:19:05.593Z,0.88
2022-08-03T11:21:50.462Z,1.00
2022-08-03T11:24:51.170Z,1.35
2022-08-03T11:27:23.354Z,0.90
2022-08-03T11:30:29.667Z,0.77
2022-08-03T11:33:00.209Z,1.27
2022-08-03T11:35:37.162Z,0.77
2022-08-03T11:38:09.445Z,0.98
2022-08-03T11:40:49.250Z,0.85
2022-08-03T11:43:31.791Z,0.68
2022-08-03T11:46:28.554Z,0.88
2022-08-03T11:49:09.294Z,0.75
2022-08-03T11:51:38.709Z,1.27
2022-08-03T11:54:08.034Z,1.02
2022-08-03T11:56:53.053Z,0.98
2022-08-03T11:59:32.540Z,0.95
2022-08-03T12:02:11.274Z,0.98
2022-08-03T12:05:00.109Z,0.77
2022-08-03T12:08:04.315Z,1.10
2022-08-03T12:10:16.854Z,0.68
2022-08-03T12:12:46.667Z,0.73
2022-08-03T12:15:13.917Z,0.98
2022-08-03T12:17:41.775Z,1.20
2022-08-03T12:20:10.393Z,1.05
2022-08-03T12:22:40.914Z,1.15
2022-08-03T12:25:09.833Z,1.17
2022-08-03T12:27:37.580Z,0.80
2022-08-03T12:30:05.120Z,0.90
2022-08-03T12:32:31.960Z,1.10
2022-08-03T12:35:01.537Z,0.90
2022-08-03T12:37:28.900Z,0.90
2022-08-03T12:40:08.009Z,1.10
2022-08-03T12:42:39.756Z,1.25
2022-08-03T12:45:31.870Z,1.13
2022-08-03T12:48:02.352Z,1.00
2022-08-03T12:50:36.255Z,0.90
2022-08-03T12:53:07.894Z,0.98
2022-08-03T12:55:40.193Z,0.80
2022-08-03T12:58:36.543Z,1.15
2022-08-03T13:01:09.156Z,1.17
2022-08-03T13:03:49.773Z,0.63
2022-08-03T13:06:24.391Z,1.50
2022-08-03T13:09:07.833Z,0.95
2022-08-03T13:11:58.079Z,0.90
2022-08-03T13:14:23.616Z,0.75
2022-08-03T13:16:50.717Z,0.93
2022-08-03T13:19:17.600Z,0.90
2022-08-03T13:21:53.462Z,0.80
2022-08-03T13:24:32.973Z,0.85
2022-08-03T13:27:00.995Z,1.00
2022-08-03T13:29:47.857Z,0.98
2022-08-03T13:32:14.683Z,1.02
2022-08-03T13:34:41.569Z,0.93
2022-08-03T13:37:09.581Z,0.70
2022-08-03T13:39:48.125Z,0.80
2022-08-03T13:42:24.557Z,0.70
2022-08-03T13:44:51.452Z,0.82
2022-08-03T13:47:19.960Z,0.85
2022-08-03T13:49:55.833Z,0.80
2022-08-03T13:52:28.278Z,0.90
2022-08-03T13:54:55.250Z,0.80
2022-08-03T13:58:05.826Z,0.65
2022-08-03T14:00:09.870Z,0.50
2022-08-03T14:02:37.195Z,0.75
2022-08-03T14:05:04.391Z,0.40
2022-08-03T14:07:31.130Z,1.02
2022-08-03T14:09:57.876Z,0.88
2022-08-03T14:12:24.555Z,0.73
2022-08-03T14:14:51.259Z,0.60
2022-08-03T14:17:18.407Z,0.68
2022-08-03T14:19:52.991Z,0.70
2022-08-03T14:22:21.538Z,0.85
2022-08-03T14:24:49.189Z,0.70
2022-08-03T14:27:16.826Z,0.52
2022-08-03T14:29:43.789Z,0.75
2022-08-03T14:32:13.334Z,0.70
2022-08-03T14:34:41.347Z,0.60
2022-08-03T14:37:08.242Z,0.65
2022-08-03T14:42:21.711Z,0.40
2022-08-03T14:44:48.612Z,0.50
2022-08-03T14:47:15.403Z,0.30
2022-08-03T14:50:38.186Z,0.30
2022-08-03T14:52:29.638Z,0.55
2022-08-03T14:54:56.833Z,0.63
2022-08-03T14:57:23.723Z,0.60
2022-08-03T14:59:56.634Z,0.43
2022-08-03T15:02:25.507Z,0.50
2022-08-03T15:04:52.835Z,0.47
2022-08-03T15:07:20.662Z,0.43
2022-08-03T15:09:47.931Z,0.30
2022-08-03T15:12:14.720Z,0.57
2022-08-03T15:14:41.490Z,0.50
2022-08-03T15:17:08.481Z,0.38
2022-08-03T15:20:00.882Z,0.90
2022-08-03T15:22:25.359Z,0.50
2022-08-03T15:25:04.121Z,0.60
2022-08-03T15:28:03.445Z,0.90
2022-08-03T15:30:35.869Z,0.60
2022-08-03T15:33:03.569Z,0.80
2022-08-03T15:35:30.292Z,0.60
2022-08-03T15:37:57.012Z,0.50
2022-08-03T15:40:23.797Z,0.45
2022-08-03T15:42:50.465Z,0.45
2022-08-03T15:45:17.867Z,0.55
2022-08-03T15:47:47.173Z,0.40
2022-08-03T15:50:14.021Z,0.70
2022-08-03T15:52:40.725Z,0.47
2022-08-03T15:55:08.391Z,0.38
2022-08-03T15:57:35.149Z,0.73
2022-08-03T16:00:33.831Z,0.60
2022-08-03T16:03:01.673Z,1.35
2022-08-03T16:05:28.623Z,0.57
2022-08-03T16:07:58.598Z,0.50
2022-08-03T16:10:32.325Z,0.60
2022-08-03T16:12:59.901Z,0.93
2022-08-03T16:15:26.995Z,0.52
2022-08-03T16:17:53.705Z,1.00
2022-08-03T16:20:31.295Z,0.40
2022-08-03T16:23:09.124Z,0.70
2022-08-03T16:25:39.679Z,0.50
2022-08-03T16:28:13.010Z,0.63
2022-08-03T16:30:43.453Z,0.63
2022-08-03T16:33:11.821Z,1.13
2022-08-03T16:35:46.729Z,0.90
2022-08-03T16:38:18.322Z,0.63
2022-08-03T16:40:51.449Z,0.68
2022-08-03T16:43:20.298Z,0.38
2022-08-03T16:45:47.628Z,0.45
2022-08-03T16:48:15.433Z,0.60
2022-08-03T16:50:42.322Z,0.80
2022-08-03T16:53:15.538Z,0.43
2022-08-03T16:55:51.937Z,0.52
2022-08-03T16:58:34.585Z,1.40
2022-08-03T17:01:23.993Z,0.77
2022-08-03T17:04:03.183Z,0.85
2022-08-03T17:06:37.999Z,0.75
2022-08-03T17:09:19.019Z,0.50
2022-08-03T17:11:51.135Z,0.57
2022-08-03T17:14:28.494Z,0.90
2022-08-03T17:17:01.626Z,0.45
2022-08-03T17:19:30.888Z,0.40
2022-08-03T17:22:24.316Z,1.05
2022-08-03T17:24:53.524Z,0.85
2022-08-03T17:28:50.875Z,0.77
2022-08-03T17:30:19.044Z,0.63
2022-08-03T17:32:56.758Z,0.38
2022-08-03T17:35:36.521Z,0.63
2022-08-03T17:38:08.903Z,0.40
2022-08-03T17:40:39.422Z,0.60
2022-08-03T17:44:13.938Z,0.90
2022-08-03T17:46:07.084Z,0.80
2022-08-03T17:48:38.083Z,0.85
2022-08-03T17:51:53.180Z,0.80
2022-08-03T17:54:28.450Z,0.80
2022-08-03T17:57:28.872Z,1.10
2022-08-03T18:00:36.840Z,1.20
2022-08-03T18:03:16.267Z,0.98
2022-08-03T18:06:11.467Z,0.85
2022-08-03T18:08:50.389Z,1.10
2022-08-03T18:11:21.808Z,1.17
2022-08-03T18:14:20.019Z,0.65
2022-08-03T18:17:01.451Z,0.75
2022-08-03T18:20:02.103Z,0.77
2022-08-03T18:22:20.660Z,1.00
2022-08-03T18:24:50.079Z,0.70
2022-08-03T18:27:17.227Z,0.77
2022-08-03T18:29:47.205Z,0.93
2022-08-03T18:32:21.925Z,0.90
2022-08-03T18:34:55.931Z,0.60
2022-08-03T18:37:26.250Z,1.30
2022-08-03T18:39:57.982Z,0.75
2022-08-03T18:42:26.169Z,0.90
2022-08-03T18:44:56.520Z,0.65
2022-08-03T18:47:57.008Z,0.80
2022-08-03T18:50:50.030Z,0.85
2022-08-03T18:54:02.425Z,1.27
2022-08-03T18:56:34.325Z,1.13
2022-08-03T18:59:14.371Z,0.77
2022-08-03T19:02:01.068Z,1.08
2022-08-03T19:04:34.730Z,1.40
2022-08-03T19:07:07.954Z,1.33
2022-08-03T19:09:54.405Z,1.02
2022-08-03T19:12:50.644Z,1.20
2022-08-03T19:15:21.230Z,1.27
2022-08-03T19:18:07.441Z,1.20
2022-08-03T19:20:37.732Z,1.67
2022-08-03T19:23:04.458Z,1.40
2022-08-03T19:25:40.526Z,1.25
2022-08-03T19:28:08.829Z,1.30
2022-08-03T19:30:40.647Z,0.98
2022-08-03T19:33:15.361Z,1.40
2022-08-03T19:35:52.178Z,1.48
2022-08-03T19:38:28.454Z,1.30
2022-08-03T19:41:02.622Z,1.58
2022-08-03T19:43:52.914Z,1.10
2022-08-03T19:46:30.425Z,1.50
2022-08-03T19:49:15.391Z,1.75
2022-08-03T19:52:01.026Z,1.45
2022-08-03T19:54:36.001Z,1.50
2022-08-03T19:57:04.877Z,1.35
2022-08-03T19:59:40.496Z,1.55
2022-08-03T20:02:26.327Z,1.52
2022-08-03T20:04:57.426Z,1.13
2022-08-03T20:07:30.664Z,1.08
2022-08-03T20:09:59.537Z,1.10
2022-08-03T20:12:29.629Z,1.42
2022-08-03T20:14:59.133Z,1.60
2022-08-03T20:17:54.809Z,2.00
2022-08-03T20:20:18.482Z,1.52
2022-08-03T20:22:48.128Z,1.70
2022-08-03T20:25:16.260Z,1.40
2022-08-03T20:28:07.333Z,1.30
2022-08-03T20:30:35.778Z,1.55
2022-08-03T20:33:04.236Z,2.40
2022-08-03T20:35:31.334Z,1.45
2022-08-03T20:37:58.132Z,1.50
2022-08-03T20:40:27.325Z,1.50
2022-08-03T20:42:55.380Z,2.10
2022-08-03T20:45:59.851Z,1.60
2022-08-03T20:48:11.308Z,1.20
2022-08-03T20:50:45.770Z,1.55
2022-08-03T20:53:13.839Z,1.80
2022-08-03T20:56:02.875Z,1.98
2022-08-03T20:58:30.967Z,1.33
2022-08-03T21:01:52.502Z,2.10
2022-08-03T21:04:21.526Z,1.42
2022-08-03T21:07:00.689Z,1.33
2022-08-03T21:09:40.033Z,1.40
2022-08-03T21:12:18.480Z,2.40
2022-08-03T21:15:07.395Z,1.48
2022-08-03T21:17:41.307Z,2.10
2022-08-03T21:20:10.972Z,1.70
2022-08-03T21:22:43.244Z,1.63
2022-08-03T21:25:13.245Z,2.17
2022-08-03T21:27:40.795Z,2.10
2022-08-03T21:30:10.986Z,1.45
2022-08-03T21:32:40.736Z,2.15
2022-08-03T21:35:11.012Z,1.35
2022-08-03T21:37:39.547Z,1.35
2022-08-03T21:40:09.412Z,1.50
2022-08-03T21:42:36.271Z,2.13
2022-08-03T21:45:16.911Z,1.80
2022-08-03T21:47:44.161Z,1.40
2022-08-03T21:50:25.559Z,1.08
2022-08-03T21:52:52.789Z,1.20
2022-08-03T21:55:21.363Z,1.35
2022-08-03T21:57:53.042Z,1.40
2022-08-03T22:00:23.203Z,1.40
2022-08-03T22:02:57.397Z,1.52
2022-08-03T22:05:43.036Z,1.45
2022-08-03T22:08:15.576Z,1.73
2022-08-03T22:10:46.714Z,1.85
2022-08-03T22:14:17.896Z,2.05
2022-08-03T22:16:44.983Z,1.55
2022-08-03T22:19:11.673Z,1.75
2022-08-03T22:21:40.594Z,1.52
2022-08-03T22:24:08.392Z,1.70
2022-08-03T22:26:35.944Z,1.65
2022-08-03T22:29:07.364Z,2.42
2022-08-03T22:31:58.836Z,1.40
2022-08-03T22:34:26.678Z,1.92
2022-08-03T22:37:01.511Z,2.05
2022-08-03T22:39:29.635Z,1.57
2022-08-03T22:41:59.955Z,1.98
2022-08-03T22:44:27.994Z,2.00
2022-08-03T22:46:56.453Z,1.48
2022-08-03T22:49:24.178Z,2.22
2022-08-03T22:51:52.774Z,1.45
2022-08-03T22:54:19.667Z,1.58
2022-08-03T22:56:47.086Z,1.65
2022-08-03T22:59:40.907Z,2.05
2022-08-03T23:02:21.167Z,1.70
2022-08-03T23:04:56.145Z,1.65
2022-08-03T23:07:36.673Z,1.50
2022-08-03T23:10:08.393Z,1.80
2022-08-03T23:12:41.002Z,1.80
2022-08-03T23:15:12.147Z,2.65
2022-08-03T23:18:01.332Z,1.48
2022-08-03T23:24:36.158Z,1.98
2022-08-03T23:27:08.254Z,2.10
2022-08-03T23:29:42.898Z,2.30
2022-08-03T23:32:10.508Z,1.65
2022-08-03T23:35:01.764Z,2.45
2022-08-03T23:37:29.297Z,1.90
2022-08-03T23:41:15.894Z,2.40
2022-08-03T23:43:51.098Z,1.90
2022-08-03T23:46:23.969Z,2.42
2022-08-03T23:48:51.338Z,1.90
2022-08-03T23:51:42.096Z,2.42
2022-08-03T23:54:26.845Z,1.98
2022-08-03T23:57:02.432Z,1.63
2022-08-03T23:59:50.559Z,1.58
